createdAt,value
2022-08-05T00:00:48.379Z,26.13
2022-08-05T00:06:05.410Z,26.17
2022-08-05T00:11:20.683Z,25.88
2022-08-05T00:16:35.386Z,26.26
2022-08-05T00:21:38.773Z,26.22
2022-08-05T00:26:51.668Z,26.55
2022-08-05T00:32:13.414Z,26.39
2022-08-05T00:37:16.989Z,26.85
2022-08-05T00:42:39.934Z,26.84
2022-08-05T00:47:57.128Z,26.70
2022-08-05T00:52:59.830Z,27.08
2022-08-05T00:58:01.955Z,27.02
2022-08-05T01:03:07.892Z,27.08
2022-08-05T01:08:40.968Z,27.22
2022-08-05T01:14:00.045Z,27.33
2022-08-05T01:19:16.305Z,27.71
2022-08-05T01:24:40.682Z,27.27
2022-08-05T01:29:50.151Z,27.58
2022-08-05T01:34:58.858Z,27.47
2022-08-05T01:40:02.198Z,27.21
2022-08-05T01:45:08.288Z,27.35
2022-08-05T01:50:15.396Z,27.21
2022-08-05T01:55:21.240Z,27.44
2022-08-05T02:00:30.502Z,27.33
2022-08-05T02:05:36.761Z,27.42
2022-08-05T02:11:12.779Z,27.59
2022-08-05T02:16:16.970Z,27.83
2022-08-05T02:21:31.514Z,27.99
2022-08-05T02:26:54.537Z,27.78
2022-08-05T02:31:58.163Z,27.83
2022-08-05T02:37:09.751Z,27.21
2022-08-05T02:42:12.074Z,27.10
2022-08-05T02:47:58.540Z,26.97
2022-08-05T02:52:53.797Z,26.89
2022-08-05T02:58:10.618Z,26.79
2022-08-05T03:03:20.193Z,26.78
2022-08-05T03:08:29.613Z,26.67
2022-08-05T03:13:52.141Z,26.99
2022-08-05T03:18:53.892Z,27.58
2022-08-05T03:23:57.959Z,28.04
2022-08-05T03:29:00.172Z,27.96
2022-08-05T03:34:04.337Z,28.37
2022-08-05T03:39:13.082Z,28.58
2022-08-05T03:44:22.447Z,28.77
2022-08-05T03:49:24.340Z,29.10
2022-08-05T03:56:05.996Z,29.30
2022-08-05T04:00:33.352Z,29.37
2022-08-05T04:05:36.335Z,29.70
2022-08-05T04:10:45.136Z,29.67
2022-08-05T04:16:03.243Z,29.83
2022-08-05T04:21:07.594Z,29.83
2022-08-05T04:26:17.451Z,30.20
2022-08-05T04:31:20.473Z,30.25
2022-08-05T04:36:45.648Z,30.18
2022-08-05T04:41:44.494Z,30.46
2022-08-05T04:46:48.551Z,30.48
2022-08-05T04:51:50.626Z,30.75
2022-08-05T04:57:02.498Z,30.74
2022-08-05T05:02:08.196Z,31.02
2022-08-05T05:07:29.511Z,31.10
2022-08-05T05:12:32.073Z,31.36
2022-08-05T05:17:56.743Z,31.31
2022-08-05T05:23:08.284Z,31.67
2022-08-05T05:28:21.622Z,31.94
2022-08-05T05:33:26.792Z,32.03
2022-08-05T05:38:29.603Z,32.25
2022-08-05T05:43:57.598Z,32.23
2022-08-05T05:48:53.475Z,32.29
2022-08-05T05:53:59.512Z,32.07
2022-08-05T05:59:07.399Z,32.00
2022-08-05T06:04:13.126Z,31.88
2022-08-05T06:09:26.503Z,31.93
2022-08-05T06:14:40.225Z,31.44
2022-08-05T06:19:42.346Z,31.30
2022-08-05T06:24:58.886Z,31.40
2022-08-05T06:30:02.751Z,31.14
2022-08-05T06:35:15.669Z,30.81
2022-08-05T06:40:32.399Z,30.71
2022-08-05T06:45:44.015Z,30.33
2022-08-05T06:50:47.139Z,29.87
2022-08-05T06:55:51.878Z,29.53
2022-08-05T07:00:54.253Z,28.76
2022-08-05T07:05:56.592Z,29.89
2022-08-05T07:10:59.009Z,29.98
2022-08-05T07:17:56.476Z,30.49
2022-08-05T07:22:00.038Z,30.82
2022-08-05T07:27:03.483Z,31.11
2022-08-05T07:32:12.424Z,31.53
2022-08-05T07:37:16.544Z,32.66
2022-08-05T07:42:18.839Z,33.40
2022-08-05T07:47:42.313Z,34.85
2022-08-05T07:52:44.799Z,35.39
2022-08-05T07:57:58.931Z,35.17
2022-08-05T08:03:14.707Z,34.72
2022-08-05T08:08:19.765Z,34.32
2022-08-05T08:13:29.432Z,33.70
2022-08-05T08:18:31.403Z,33.68
2022-08-05T08:24:02.357Z,34.66
2022-08-05T08:29:02.041Z,34.68
2022-08-05T08:34:18.667Z,35.04
2022-08-05T08:39:21.852Z,35.57
2022-08-05T08:45:23.562Z,35.55
2022-08-05T08:50:06.070Z,35.04
2022-08-05T08:55:13.413Z,35.02
2022-08-05T09:00:15.654Z,34.68
2022-08-05T09:05:38.550Z,35.06
2022-08-05T09:10:46.935Z,34.74
2022-08-05T09:15:49.430Z,34.47
2022-08-05T09:20:51.464Z,34.20
2022-08-05T09:26:09.231Z,33.63
2022-08-05T09:31:23.462Z,33.32
2022-08-05T09:36:56.268Z,33.02
2022-08-05T09:42:04.837Z,32.84
2022-08-05T09:47:21.843Z,32.72
2022-08-05T09:52:28.076Z,32.72
2022-08-05T09:57:45.464Z,32.31
2022-08-05T10:02:54.812Z,32.22
2022-08-05T10:08:35.703Z,32.14
2022-08-05T10:13:44.081Z,32.01
2022-08-05T10:18:49.905Z,31.59
2022-08-05T10:24:00.282Z,32.07
2022-08-05T10:29:02.848Z,32.31
2022-08-05T10:34:06.984Z,31.81
2022-08-05T10:39:24.859Z,32.02
2022-08-05T10:44:39.192Z,32.26
2022-08-05T10:50:33.237Z,32.23
2022-08-05T10:55:25.653Z,32.22
2022-08-05T11:00:30.169Z,31.80
2022-08-05T11:05:36.363Z,30.94
2022-08-05T11:10:50.431Z,30.77
2022-08-05T11:16:47.530Z,30.24
2022-08-05T11:21:49.516Z,30.08
2022-08-05T11:27:50.981Z,30.06
2022-08-05T11:33:43.849Z,29.71
2022-08-05T11:38:51.268Z,29.17
2022-08-05T11:44:06.730Z,29.00
2022-08-05T11:49:16.733Z,28.81
2022-08-05T11:54:33.446Z,28.21
2022-08-05T11:59:49.369Z,27.79
2022-08-05T12:04:58.971Z,27.58
2022-08-05T12:10:09.195Z,27.03
2022-08-05T12:15:35.971Z,26.30
2022-08-05T12:20:40.651Z,25.97
2022-08-05T12:25:51.544Z,25.37
2022-08-05T12:30:57.546Z,25.35
2022-08-05T12:36:07.908Z,25.45
2022-08-05T12:41:13.954Z,25.28
2022-08-05T12:46:45.486Z,25.13
2022-08-05T12:52:13.586Z,25.33
2022-08-05T12:57:13.346Z,24.45
2022-08-05T13:02:21.373Z,24.21
2022-08-05T13:07:59.463Z,24.03
2022-08-05T13:12:58.072Z,24.32
2022-08-05T13:18:00.602Z,23.50
2022-08-05T13:23:06.337Z,23.02
2022-08-05T13:28:10.615Z,22.61
2022-08-05T13:33:14.416Z,22.29
2022-08-05T13:38:38.482Z,22.26
2022-08-05T13:43:54.481Z,22.12
2022-08-05T13:49:00.853Z,22.48
2022-08-05T13:54:03.122Z,22.84
2022-08-05T13:59:19.512Z,23.16
2022-08-05T14:04:41.082Z,22.73
2022-08-05T14:09:46.507Z,22.74
2022-08-05T14:14:48.998Z,22.73
2022-08-05T14:19:59.605Z,22.81
2022-08-05T14:25:06.431Z,22.51
2022-08-05T14:30:25.549Z,23.03
2022-08-05T14:35:36.283Z,22.66
2022-08-05T14:40:39.622Z,22.89
2022-08-05T14:45:45.870Z,23.06
2022-08-05T14:50:47.863Z,23.23
2022-08-05T14:55:52.620Z,23.09
2022-08-05T15:00:59.272Z,23.30
2022-08-05T15:06:06.927Z,23.14
2022-08-05T15:11:10.598Z,23.31
2022-08-05T15:16:14.526Z,23.15
2022-08-05T15:21:20.938Z,23.11
2022-08-05T15:26:32.100Z,23.57
2022-08-05T15:31:34.745Z,23.84
2022-08-05T15:36:38.404Z,23.54
2022-08-05T15:41:55.770Z,23.94
2022-08-05T15:47:04.670Z,23.94
2022-08-05T15:52:13.717Z,24.12
2022-08-05T15:57:34.652Z,24.26
2022-08-05T16:02:37.346Z,24.51
2022-08-05T16:07:39.393Z,24.73
2022-08-05T16:12:49.008Z,24.34
2022-08-05T16:17:57.905Z,24.71
2022-08-05T16:23:00.186Z,25.11
2022-08-05T16:28:05.511Z,25.59
2022-08-05T16:33:08.272Z,25.28
2022-08-05T16:38:24.633Z,25.42
2022-08-05T16:43:30.450Z,25.66
2022-08-05T16:48:33.865Z,26.15
2022-08-05T16:54:02.986Z,26.45
2022-08-05T16:59:08.275Z,26.68
2022-08-05T17:04:10.589Z,26.97
2022-08-05T17:09:12.495Z,27.29
2022-08-05T17:14:22.207Z,27.43
2022-08-05T17:19:36.509Z,27.52
2022-08-05T17:24:40.526Z,28.10
2022-08-05T17:29:52.774Z,28.27
2022-08-05T17:35:02.262Z,27.88
2022-08-05T17:40:10.894Z,27.88
2022-08-05T17:45:20.694Z,27.75
2022-08-05T17:50:30.509Z,28.51
2022-08-05T17:55:38.082Z,29.33
2022-08-05T18:00:47.719Z,30.82
2022-08-05T18:05:53.683Z,31.61
2022-08-05T18:10:56.308Z,34.25
2022-08-05T18:15:59.187Z,35.06
2022-08-05T18:21:01.676Z,35.97
2022-08-05T18:26:03.605Z,36.49
2022-08-05T18:31:07.349Z,36.96
2022-08-05T18:36:15.350Z,38.07
2022-08-05T18:41:56.809Z,38.43
2022-08-05T18:46:40.956Z,38.47
2022-08-05T18:52:04.358Z,39.08
2022-08-05T18:57:14.991Z,39.83
2022-08-05T19:02:28.210Z,41.67
2022-08-05T19:07:45.063Z,43.08
2022-08-05T19:12:48.538Z,43.22
2022-08-05T19:18:09.365Z,44.16
2022-08-05T19:23:22.601Z,44.44
2022-08-05T19:28:35.117Z,44.18
2022-08-05T19:33:38.222Z,44.18
2022-08-05T19:38:43.914Z,45.53
2022-08-05T19:44:05.728Z,47.55
2022-08-05T19:49:08.433Z,47.24
2022-08-05T19:54:25.580Z,46.60
2022-08-05T20:00:00.225Z,45.90
2022-08-05T20:04:58.760Z,46.48
2022-08-05T20:10:01.366Z,47.05
2022-08-05T20:15:07.528Z,46.54
2022-08-05T20:20:11.235Z,46.51
2022-08-05T20:25:13.168Z,46.04
2022-08-05T20:30:15.381Z,45.56
2022-08-05T20:35:23.684Z,45.70
2022-08-05T20:40:26.508Z,46.28
2022-08-05T20:45:55.968Z,46.45
2022-08-05T20:50:52.063Z,45.69
2022-08-05T20:55:56.479Z,45.20
2022-08-05T21:01:10.737Z,45.34
2022-08-05T21:06:27.626Z,45.40
2022-08-05T21:12:07.034Z,45.50
2022-08-05T21:16:52.540Z,46.13
2022-08-05T21:21:54.389Z,46.52
2022-08-05T21:26:58.427Z,46.50
2022-08-05T21:32:04.187Z,46.63
2022-08-05T21:37:08.184Z,46.19
2022-08-05T21:42:30.659Z,45.98
2022-08-05T21:47:54.703Z,46.12
2022-08-05T21:52:58.747Z,45.56
2022-08-05T21:58:06.765Z,44.82
2022-08-05T22:03:15.226Z,44.17
2022-08-05T22:08:22.456Z,44.64
2022-08-05T22:14:32.341Z,44.93
2022-08-05T22:18:49.247Z,45.84
2022-08-05T22:24:13.274Z,47.34
2022-08-05T22:29:32.982Z,48.24
2022-08-05T22:34:35.214Z,49.13
2022-08-05T22:39:38.652Z,50.01
2022-08-05T22:44:48.476Z,50.01
2022-08-05T22:50:19.513Z,49.61
2022-08-05T22:55:24.130Z,48.66
2022-08-05T23:00:28.408Z,48.41
2022-08-05T23:05:35.924Z,48.42
2022-08-05T23:10:38.341Z,49.12
2022-08-05T23:15:40.895Z,49.61
2022-08-05T23:20:43.213Z,50.53
2022-08-05T23:25:52.145Z,50.54
2022-08-05T23:31:14.829Z,50.94
2022-08-05T23:36:18.766Z,50.46
2022-08-05T23:41:21.214Z,50.87
2022-08-05T23:46:23.758Z,51.14
2022-08-05T23:51:25.631Z,51.01
2022-08-05T23:56:28.139Z,50.67
